sensor_id;sensor_type;location;lat;lon;timestamp;temperature;humidity
10030;DHT22;5055;52.054;8.524;2023-01-05T00:01:38;11.20;97.00
10030;DHT22;5055;52.054;8.524;2023-01-05T00:04:07;11.20;97.00
10030;DHT22;5055;52.054;8.524;2023-01-05T00:06:36;11.20;97.00
10030;DHT22;5055;52.054;8.524;2023-01-05T00:09:06;11.20;97.00
10030;DHT22;5055;52.054;8.524;2023-01-05T00:11:35;11.30;97.00
10030;DHT22;5055;52.054;8.524;2023-01-05T00:14:23;11.30;97.00
10030;DHT22;5055;52.054;8.524;2023-01-05T00:17:11;11.30;97.00
10030;DHT22;5055;52.054;8.524;2023-01-05T00:19:57;11.30;97.00
10030;DHT22;5055;52.054;8.524;2023-01-05T00:22:47;11.30;97.00
10030;DHT22;5055;52.054;8.524;2023-01-05T00:25:18;11.30;97.00
10030;DHT22;5055;52.054;8.524;2023-01-05T00:27:48;11.30;97.00
10030;DHT22;5055;52.054;8.524;2023-01-05T00:30:20;11.30;97.00
10030;DHT22;5055;52.054;8.524;2023-01-05T00:32:49;11.20;97.00
10030;DHT22;5055;52.054;8.524;2023-01-05T00:35:18;11.20;97.00
10030;DHT22;5055;52.054;8.524;2023-01-05T00:37:46;11.10;97.00
10030;DHT22;5055;52.054;8.524;2023-01-05T00:40:18;11.10;97.00
10030;DHT22;5055;52.054;8.524;2023-01-05T00:42:47;11.00;97.00
10030;DHT22;5055;52.054;8.524;2023-01-05T00:45:16;11.00;97.00
10030;DHT22;5055;52.054;8.524;2023-01-05T00:47:47;10.90;97.00
10030;DHT22;5055;52.054;8.524;2023-01-05T00:50:18;10.80;97.00
10030;DHT22;5055;52.054;8.524;2023-01-05T00:52:47;10.80;97.00
10030;DHT22;5055;52.054;8.524;2023-01-05T00:55:16;10.70;97.00
10030;DHT22;5055;52.054;8.524;2023-01-05T00:57:44;10.70;97.00
10030;DHT22;5055;52.054;8.524;2023-01-05T01:00:15;10.60;97.00
10030;DHT22;5055;52.054;8.524;2023-01-05T01:02:45;10.60;97.00
10030;DHT22;5055;52.054;8.524;2023-01-05T01:05:15;10.50;97.00
10030;DHT22;5055;52.054;8.524;2023-01-05T01:07:43;10.50;97.00
10030;DHT22;5055;52.054;8.524;2023-01-05T01:10:12;10.40;97.00
10030;DHT22;5055;52.054;8.524;2023-01-05T01:12:40;10.40;97.00
10030;DHT22;5055;52.054;8.524;2023-01-05T01:15:09;10.30;97.00
10030;DHT22;5055;52.054;8.524;2023-01-05T01:17:37;10.30;97.00
10030;DHT22;5055;52.054;8.524;2023-01-05T01:20:07;10.30;97.00
10030;DHT22;5055;52.054;8.524;2023-01-05T01:22:37;10.30;97.00
10030;DHT22;5055;52.054;8.524;2023-01-05T01:25:06;10.30;97.00
10030;DHT22;5055;52.054;8.524;2023-01-05T01:27:34;10.30;97.00
10030;DHT22;5055;52.054;8.524;2023-01-05T01:30:04;10.40;97.00
10030;DHT22;5055;52.054;8.524;2023-01-05T01:32:32;10.50;97.00
10030;DHT22;5055;52.054;8.524;2023-01-05T01:35:01;10.50;97.00
10030;DHT22;5055;52.054;8.524;2023-01-05T01:37:29;10.50;97.00
10030;DHT22;5055;52.054;8.524;2023-01-05T01:39:59;10.50;97.00
10030;DHT22;5055;52.054;8.524;2023-01-05T01:42:39;10.50;97.00
10030;DHT22;5055;52.054;8.524;2023-01-05T01:45:33;10.60;97.00
10030;DHT22;5055;52.054;8.524;2023-01-05T01:48:02;10.60;97.00
10030;DHT22;5055;52.054;8.524;2023-01-05T01:50:33;10.60;97.00
10030;DHT22;5055;52.054;8.524;2023-01-05T01:53:15;10.60;97.00
10030;DHT22;5055;52.054;8.524;2023-01-05T01:55:59;10.60;97.00
10030;DHT22;5055;52.054;8.524;2023-01-05T01:58:33;10.70;97.00
10030;DHT22;5055;52.054;8.524;2023-01-05T02:01:05;10.70;97.00
10030;DHT22;5055;52.054;8.524;2023-01-05T02:03:34;10.70;97.00
10030;DHT22;5055;52.054;8.524;2023-01-05T02:06:04;10.70;97.00
10030;DHT22;5055;52.054;8.524;2023-01-05T02:08:33;10.70;97.00
10030;DHT22;5055;52.054;8.524;2023-01-05T02:11:16;10.70;97.00
10030;DHT22;5055;52.054;8.524;2023-01-05T02:16:48;10.70;97.00
10030;DHT22;5055;52.054;8.524;2023-01-05T02:19:47;10.70;97.00
10030;DHT22;5055;52.054;8.524;2023-01-05T02:22:49;10.70;97.00
10030;DHT22;5055;52.054;8.524;2023-01-05T02:29:02;10.70;97.00
10030;DHT22;5055;52.054;8.524;2023-01-05T02:31:39;10.70;97.00
10030;DHT22;5055;52.054;8.524;2023-01-05T02:34:18;10.70;97.00
10030;DHT22;5055;52.054;8.524;2023-01-05T02:36:53;10.70;97.00
10030;DHT22;5055;52.054;8.524;2023-01-05T02:39:33;10.70;97.00
10030;DHT22;5055;52.054;8.524;2023-01-05T02:42:09;10.70;97.00
10030;DHT22;5055;52.054;8.524;2023-01-05T02:44:42;10.70;97.00
10030;DHT22;5055;52.054;8.524;2023-01-05T02:47:37;10.60;97.00
10030;DHT22;5055;52.054;8.524;2023-01-05T02:50:10;10.50;97.00
10030;DHT22;5055;52.054;8.524;2023-01-05T02:52:45;10.40;97.00
10030;DHT22;5055;52.054;8.524;2023-01-05T02:55:22;10.40;97.00
10030;DHT22;5055;52.054;8.524;2023-01-05T02:57:58;10.30;97.00
10030;DHT22;5055;52.054;8.524;2023-01-05T03:00:34;10.30;97.00
10030;DHT22;5055;52.054;8.524;2023-01-05T03:03:08;10.30;97.00
10030;DHT22;5055;52.054;8.524;2023-01-05T03:05:45;10.30;97.00
10030;DHT22;5055;52.054;8.524;2023-01-05T03:08:17;10.30;97.00
10030;DHT22;5055;52.054;8.524;2023-01-05T03:11:01;10.30;97.00
10030;DHT22;5055;52.054;8.524;2023-01-05T03:13:51;10.30;97.00
10030;DHT22;5055;52.054;8.524;2023-01-05T03:16:25;10.20;97.00
10030;DHT22;5055;52.054;8.524;2023-01-05T03:18:56;10.20;97.00
10030;DHT22;5055;52.054;8.524;2023-01-05T03:21:44;10.10;97.00
10030;DHT22;5055;52.054;8.524;2023-01-05T03:24:35;10.10;97.00
10030;DHT22;5055;52.054;8.524;2023-01-05T03:27:21;10.10;97.00
10030;DHT22;5055;52.054;8.524;2023-01-05T03:30:09;10.10;97.00
10030;DHT22;5055;52.054;8.524;2023-01-05T03:33:00;10.10;97.00
10030;DHT22;5055;52.054;8.524;2023-01-05T03:35:50;10.10;97.00
10030;DHT22;5055;52.054;8.524;2023-01-05T03:38:26;10.00;97.00
10030;DHT22;5055;52.054;8.524;2023-01-05T03:40:58;10.00;97.00
10030;DHT22;5055;52.054;8.524;2023-01-05T03:43:27;9.90;97.00
10030;DHT22;5055;52.054;8.524;2023-01-05T03:45:56;9.90;97.00
10030;DHT22;5055;52.054;8.524;2023-01-05T03:48:26;9.90;97.00
10030;DHT22;5055;52.054;8.524;2023-01-05T03:50:57;9.90;97.00
10030;DHT22;5055;52.054;8.524;2023-01-05T03:53:26;9.90;97.00
10030;DHT22;5055;52.054;8.524;2023-01-05T03:56:03;9.90;97.00
10030;DHT22;5055;52.054;8.524;2023-01-05T03:58:32;9.90;97.00
10030;DHT22;5055;52.054;8.524;2023-01-05T04:01:00;9.90;97.00
10030;DHT22;5055;52.054;8.524;2023-01-05T04:03:28;9.90;97.00
10030;DHT22;5055;52.054;8.524;2023-01-05T04:06:00;9.90;97.00
10030;DHT22;5055;52.054;8.524;2023-01-05T04:08:28;9.90;97.00
10030;DHT22;5055;52.054;8.524;2023-01-05T04:10:57;9.90;97.00
10030;DHT22;5055;52.054;8.524;2023-01-05T04:13:36;9.90;97.00
10030;DHT22;5055;52.054;8.524;2023-01-05T04:16:05;9.90;97.00
10030;DHT22;5055;52.054;8.524;2023-01-05T04:18:34;10.00;97.00
10030;DHT22;5055;52.054;8.524;2023-01-05T04:21:04;10.00;97.00
10030;DHT22;5055;52.054;8.524;2023-01-05T04:23:33;10.00;97.00
10030;DHT22;5055;52.054;8.524;2023-01-05T04:26:02;10.00;97.00
10030;DHT22;5055;52.054;8.524;2023-01-05T04:28:30;10.00;97.00
10030;DHT22;5055;52.054;8.524;2023-01-05T04:30:59;10.00;97.00
10030;DHT22;5055;52.054;8.524;2023-01-05T04:33:27;10.00;97.00
10030;DHT22;5055;52.054;8.524;2023-01-05T04:35:56;10.00;97.00
10030;DHT22;5055;52.054;8.524;2023-01-05T04:38:25;10.00;97.00
10030;DHT22;5055;52.054;8.524;2023-01-05T04:40:54;10.00;97.00
10030;DHT22;5055;52.054;8.524;2023-01-05T04:43:22;10.00;97.00
10030;DHT22;5055;52.054;8.524;2023-01-05T04:45:51;9.90;97.00
10030;DHT22;5055;52.054;8.524;2023-01-05T04:48:19;10.00;97.00
10030;DHT22;5055;52.054;8.524;2023-01-05T04:50:51;10.00;97.00
10030;DHT22;5055;52.054;8.524;2023-01-05T04:53:21;10.00;97.00
10030;DHT22;5055;52.054;8.524;2023-01-05T04:55:51;10.00;97.00
10030;DHT22;5055;52.054;8.524;2023-01-05T04:58:19;10.00;97.00
10030;DHT22;5055;52.054;8.524;2023-01-05T05:00:48;10.00;97.00
10030;DHT22;5055;52.054;8.524;2023-01-05T05:03:19;10.00;97.00
10030;DHT22;5055;52.054;8.524;2023-01-05T05:05:51;10.00;97.00
10030;DHT22;5055;52.054;8.524;2023-01-05T05:08:20;10.00;97.00
10030;DHT22;5055;52.054;8.524;2023-01-05T05:10:50;10.00;97.00
10030;DHT22;5055;52.054;8.524;2023-01-05T05:13:19;10.00;97.00
10030;DHT22;5055;52.054;8.524;2023-01-05T05:15:47;10.00;97.00
10030;DHT22;5055;52.054;8.524;2023-01-05T05:18:16;10.00;97.00
10030;DHT22;5055;52.054;8.524;2023-01-05T05:20:47;10.00;97.00
10030;DHT22;5055;52.054;8.524;2023-01-05T05:23:18;10.00;97.00
10030;DHT22;5055;52.054;8.524;2023-01-05T05:25:49;9.90;97.00
10030;DHT22;5055;52.054;8.524;2023-01-05T05:28:19;9.90;97.00
10030;DHT22;5055;52.054;8.524;2023-01-05T05:30:48;9.90;97.00
10030;DHT22;5055;52.054;8.524;2023-01-05T05:33:17;9.90;97.00
10030;DHT22;5055;52.054;8.524;2023-01-05T05:35:45;9.90;97.00
10030;DHT22;5055;52.054;8.524;2023-01-05T05:38:14;9.90;97.00
10030;DHT22;5055;52.054;8.524;2023-01-05T05:40:43;10.00;97.00
10030;DHT22;5055;52.054;8.524;2023-01-05T05:43:11;10.00;97.00
10030;DHT22;5055;52.054;8.524;2023-01-05T05:45:41;9.90;97.00
10030;DHT22;5055;52.054;8.524;2023-01-05T05:48:16;9.90;97.00
10030;DHT22;5055;52.054;8.524;2023-01-05T05:50:45;10.00;97.00
10030;DHT22;5055;52.054;8.524;2023-01-05T05:53:14;9.90;97.00
10030;DHT22;5055;52.054;8.524;2023-01-05T05:55:46;9.90;97.00
10030;DHT22;5055;52.054;8.524;2023-01-05T05:58:14;10.00;97.00
10030;DHT22;5055;52.054;8.524;2023-01-05T06:00:44;10.00;97.00
10030;DHT22;5055;52.054;8.524;2023-01-05T06:03:13;10.00;97.00
10030;DHT22;5055;52.054;8.524;2023-01-05T06:05:41;10.00;97.00
10030;DHT22;5055;52.054;8.524;2023-01-05T06:08:09;10.00;97.00
10030;DHT22;5055;52.054;8.524;2023-01-05T06:10:38;10.00;97.00
10030;DHT22;5055;52.054;8.524;2023-01-05T06:13:06;10.00;97.00
10030;DHT22;5055;52.054;8.524;2023-01-05T06:15:35;10.10;97.00
10030;DHT22;5055;52.054;8.524;2023-01-05T06:18:05;10.10;97.00
10030;DHT22;5055;52.054;8.524;2023-01-05T06:20:34;10.10;97.00
10030;DHT22;5055;52.054;8.524;2023-01-05T06:23:02;10.10;97.00
10030;DHT22;5055;52.054;8.524;2023-01-05T06:25:30;10.10;97.00
10030;DHT22;5055;52.054;8.524;2023-01-05T06:27:59;10.10;97.00
10030;DHT22;5055;52.054;8.524;2023-01-05T06:30:28;10.10;97.00
10030;DHT22;5055;52.054;8.524;2023-01-05T06:32:57;10.10;97.00
10030;DHT22;5055;52.054;8.524;2023-01-05T06:35:26;10.10;97.00
10030;DHT22;5055;52.054;8.524;2023-01-05T06:37:55;10.10;97.00
10030;DHT22;5055;52.054;8.524;2023-01-05T06:40:23;10.00;97.00
10030;DHT22;5055;52.054;8.524;2023-01-05T06:42:52;10.00;97.00
10030;DHT22;5055;52.054;8.524;2023-01-05T06:45:20;10.10;97.00
10030;DHT22;5055;52.054;8.524;2023-01-05T06:47:48;10.10;97.00
10030;DHT22;5055;52.054;8.524;2023-01-05T06:50:17;10.10;97.00
10030;DHT22;5055;52.054;8.524;2023-01-05T06:52:46;10.10;97.00
10030;DHT22;5055;52.054;8.524;2023-01-05T06:55:15;10.00;97.00
10030;DHT22;5055;52.054;8.524;2023-01-05T06:57:43;10.00;97.00
10030;DHT22;5055;52.054;8.524;2023-01-05T07:00:13;10.00;97.00
10030;DHT22;5055;52.054;8.524;2023-01-05T07:02:42;10.00;97.00
10030;DHT22;5055;52.054;8.524;2023-01-05T07:05:10;10.10;97.00
10030;DHT22;5055;52.054;8.524;2023-01-05T07:07:39;10.00;97.00
10030;DHT22;5055;52.054;8.524;2023-01-05T07:10:09;10.00;97.00
10030;DHT22;5055;52.054;8.524;2023-01-05T07:12:37;10.00;97.00
10030;DHT22;5055;52.054;8.524;2023-01-05T07:15:07;10.00;97.00
10030;DHT22;5055;52.054;8.524;2023-01-05T07:17:35;10.00;97.00
10030;DHT22;5055;52.054;8.524;2023-01-05T07:20:05;10.10;97.00
10030;DHT22;5055;52.054;8.524;2023-01-05T07:22:33;10.10;97.00
10030;DHT22;5055;52.054;8.524;2023-01-05T07:25:02;10.10;97.00
10030;DHT22;5055;52.054;8.524;2023-01-05T07:27:32;10.10;97.00
10030;DHT22;5055;52.054;8.524;2023-01-05T07:30:00;10.00;97.00
10030;DHT22;5055;52.054;8.524;2023-01-05T07:32:28;10.00;97.00
10030;DHT22;5055;52.054;8.524;2023-01-05T07:34:57;9.90;97.00
10030;DHT22;5055;52.054;8.524;2023-01-05T07:37:25;9.90;97.00
10030;DHT22;5055;52.054;8.524;2023-01-05T07:39:53;9.90;97.00
10030;DHT22;5055;52.054;8.524;2023-01-05T07:42:21;9.90;97.00
10030;DHT22;5055;52.054;8.524;2023-01-05T07:44:53;9.80;97.00
10030;DHT22;5055;52.054;8.524;2023-01-05T07:47:21;9.80;97.00
10030;DHT22;5055;52.054;8.524;2023-01-05T07:49:49;9.80;97.00
10030;DHT22;5055;52.054;8.524;2023-01-05T07:52:18;9.70;97.00
10030;DHT22;5055;52.054;8.524;2023-01-05T07:54:46;9.70;97.00
10030;DHT22;5055;52.054;8.524;2023-01-05T07:57:17;9.70;97.00
10030;DHT22;5055;52.054;8.524;2023-01-05T07:59:46;9.70;97.00
10030;DHT22;5055;52.054;8.524;2023-01-05T08:02:15;9.80;97.00
10030;DHT22;5055;52.054;8.524;2023-01-05T08:04:44;9.80;97.00
10030;DHT22;5055;52.054;8.524;2023-01-05T08:07:13;9.80;97.00
10030;DHT22;5055;52.054;8.524;2023-01-05T08:09:41;9.80;97.00
10030;DHT22;5055;52.054;8.524;2023-01-05T08:12:39;9.80;97.00
10030;DHT22;5055;52.054;8.524;2023-01-05T08:15:21;9.80;97.00
10030;DHT22;5055;52.054;8.524;2023-01-05T08:17:51;9.80;97.00
10030;DHT22;5055;52.054;8.524;2023-01-05T08:20:22;9.70;97.00
10030;DHT22;5055;52.054;8.524;2023-01-05T08:22:51;9.70;97.00
10030;DHT22;5055;52.054;8.524;2023-01-05T08:25:20;9.70;97.00
10030;DHT22;5055;52.054;8.524;2023-01-05T08:27:48;9.70;97.00
10030;DHT22;5055;52.054;8.524;2023-01-05T08:30:19;9.70;97.00
10030;DHT22;5055;52.054;8.524;2023-01-05T08:32:48;9.70;97.00
10030;DHT22;5055;52.054;8.524;2023-01-05T08:35:18;9.70;97.00
10030;DHT22;5055;52.054;8.524;2023-01-05T08:37:46;9.80;97.00
10030;DHT22;5055;52.054;8.524;2023-01-05T08:40:14;9.80;97.00
10030;DHT22;5055;52.054;8.524;2023-01-05T08:42:43;9.80;97.00
10030;DHT22;5055;52.054;8.524;2023-01-05T08:45:14;9.80;97.00
10030;DHT22;5055;52.054;8.524;2023-01-05T08:47:42;9.80;97.00
10030;DHT22;5055;52.054;8.524;2023-01-05T08:50:11;9.80;97.00
10030;DHT22;5055;52.054;8.524;2023-01-05T08:52:40;9.80;97.00
10030;DHT22;5055;52.054;8.524;2023-01-05T08:55:09;9.90;97.00
10030;DHT22;5055;52.054;8.524;2023-01-05T08:57:37;9.90;97.00
10030;DHT22;5055;52.054;8.524;2023-01-05T09:00:07;9.90;97.00
10030;DHT22;5055;52.054;8.524;2023-01-05T09:02:39;10.00;97.00
10030;DHT22;5055;52.054;8.524;2023-01-05T09:05:08;10.00;97.00
10030;DHT22;5055;52.054;8.524;2023-01-05T09:07:36;10.00;97.00
10030;DHT22;5055;52.054;8.524;2023-01-05T09:10:07;10.00;97.00
10030;DHT22;5055;52.054;8.524;2023-01-05T09:12:36;10.00;97.00
10030;DHT22;5055;52.054;8.524;2023-01-05T09:15:06;10.00;97.00
10030;DHT22;5055;52.054;8.524;2023-01-05T09:17:34;10.00;97.00
10030;DHT22;5055;52.054;8.524;2023-01-05T09:20:05;10.00;97.00
10030;DHT22;5055;52.054;8.524;2023-01-05T09:22:34;10.00;97.00
10030;DHT22;5055;52.054;8.524;2023-01-05T09:25:03;10.00;97.00
10030;DHT22;5055;52.054;8.524;2023-01-05T09:27:33;10.00;97.00
10030;DHT22;5055;52.054;8.524;2023-01-05T09:30:03;10.10;97.00
10030;DHT22;5055;52.054;8.524;2023-01-05T09:32:31;10.10;97.00
10030;DHT22;5055;52.054;8.524;2023-01-05T09:35:00;10.10;97.00
10030;DHT22;5055;52.054;8.524;2023-01-05T09:37:28;10.10;97.00
10030;DHT22;5055;52.054;8.524;2023-01-05T09:39:56;10.10;97.00
10030;DHT22;5055;52.054;8.524;2023-01-05T09:42:25;10.10;97.00
10030;DHT22;5055;52.054;8.524;2023-01-05T09:45:01;10.10;97.00
10030;DHT22;5055;52.054;8.524;2023-01-05T09:47:33;10.10;97.00
10030;DHT22;5055;52.054;8.524;2023-01-05T09:50:05;10.10;97.00
10030;DHT22;5055;52.054;8.524;2023-01-05T09:52:34;10.10;97.00
10030;DHT22;5055;52.054;8.524;2023-01-05T09:55:11;10.00;97.00
10030;DHT22;5055;52.054;8.524;2023-01-05T09:57:43;10.00;97.00
10030;DHT22;5055;52.054;8.524;2023-01-05T10:00:22;10.00;97.00
10030;DHT22;5055;52.054;8.524;2023-01-05T10:02:54;10.00;97.00
10030;DHT22;5055;52.054;8.524;2023-01-05T10:05:25;9.90;97.00
10030;DHT22;5055;52.054;8.524;2023-01-05T10:08:00;9.90;97.00
10030;DHT22;5055;52.054;8.524;2023-01-05T10:10:41;9.90;97.00
10030;DHT22;5055;52.054;8.524;2023-01-05T10:13:20;9.90;97.00
10030;DHT22;5055;52.054;8.524;2023-01-05T10:15:53;9.90;97.00
10030;DHT22;5055;52.054;8.524;2023-01-05T10:18:24;9.90;97.00
10030;DHT22;5055;52.054;8.524;2023-01-05T10:21:12;10.00;97.00
10030;DHT22;5055;52.054;8.524;2023-01-05T10:23:55;10.00;97.00
10030;DHT22;5055;52.054;8.524;2023-01-05T10:26:29;10.00;97.00
10030;DHT22;5055;52.054;8.524;2023-01-05T10:29:23;10.10;97.00
10030;DHT22;5055;52.054;8.524;2023-01-05T10:31:56;10.10;97.00
10030;DHT22;5055;52.054;8.524;2023-01-05T10:34:43;10.20;97.00
10030;DHT22;5055;52.054;8.524;2023-01-05T10:37:42;10.20;97.00
10030;DHT22;5055;52.054;8.524;2023-01-05T10:40:25;10.20;97.00
10030;DHT22;5055;52.054;8.524;2023-01-05T10:43:08;10.30;97.00
10030;DHT22;5055;52.054;8.524;2023-01-05T10:45:39;10.40;97.00
10030;DHT22;5055;52.054;8.524;2023-01-05T10:48:32;10.40;97.00
10030;DHT22;5055;52.054;8.524;2023-01-05T10:51:03;10.50;97.00
10030;DHT22;5055;52.054;8.524;2023-01-05T10:53:35;10.50;97.00
10030;DHT22;5055;52.054;8.524;2023-01-05T10:56:05;10.50;97.00
10030;DHT22;5055;52.054;8.524;2023-01-05T10:58:39;10.50;97.00
10030;DHT22;5055;52.054;8.524;2023-01-05T11:01:20;10.50;97.00
10030;DHT22;5055;52.054;8.524;2023-01-05T11:03:54;10.50;97.00
10030;DHT22;5055;52.054;8.524;2023-01-05T11:06:44;10.50;97.00
10030;DHT22;5055;52.054;8.524;2023-01-05T11:09:17;10.50;97.00
10030;DHT22;5055;52.054;8.524;2023-01-05T11:11:53;10.50;97.00
10030;DHT22;5055;52.054;8.524;2023-01-05T11:14:23;10.60;97.00
10030;DHT22;5055;52.054;8.524;2023-01-05T11:16:53;10.60;97.00
10030;DHT22;5055;52.054;8.524;2023-01-05T11:19:28;10.70;97.00
10030;DHT22;5055;52.054;8.524;2023-01-05T11:21:57;10.70;97.00
10030;DHT22;5055;52.054;8.524;2023-01-05T11:24:30;10.80;97.00
10030;DHT22;5055;52.054;8.524;2023-01-05T11:27:00;10.80;97.00
10030;DHT22;5055;52.054;8.524;2023-01-05T11:29:29;10.80;97.00
10030;DHT22;5055;52.054;8.524;2023-01-05T11:32:00;10.90;97.00
10030;DHT22;5055;52.054;8.524;2023-01-05T11:34:41;10.90;97.00
10030;DHT22;5055;52.054;8.524;2023-01-05T11:37:20;10.90;97.00
10030;DHT22;5055;52.054;8.524;2023-01-05T11:39:51;10.90;97.00
10030;DHT22;5055;52.054;8.524;2023-01-05T11:42:28;10.90;97.00
10030;DHT22;5055;52.054;8.524;2023-01-05T11:44:59;10.90;97.00
10030;DHT22;5055;52.054;8.524;2023-01-05T11:47:30;10.90;97.00
10030;DHT22;5055;52.054;8.524;2023-01-05T11:50:18;10.90;97.00
10030;DHT22;5055;52.054;8.524;2023-01-05T11:52:52;10.90;97.00
10030;DHT22;5055;52.054;8.524;2023-01-05T11:55:29;10.80;97.00
10030;DHT22;5055;52.054;8.524;2023-01-05T11:58:21;10.70;97.00
10030;DHT22;5055;52.054;8.524;2023-01-05T12:01:20;10.60;97.00
10030;DHT22;5055;52.054;8.524;2023-01-05T12:04:01;10.50;97.00
10030;DHT22;5055;52.054;8.524;2023-01-05T12:06:49;10.40;97.00
10030;DHT22;5055;52.054;8.524;2023-01-05T12:09:24;10.40;97.00
10030;DHT22;5055;52.054;8.524;2023-01-05T12:12:09;10.40;97.00
10030;DHT22;5055;52.054;8.524;2023-01-05T12:17:47;10.40;97.00
10030;DHT22;5055;52.054;8.524;2023-01-05T12:20:47;10.50;97.00
10030;DHT22;5055;52.054;8.524;2023-01-05T12:23:45;10.50;97.00
10030;DHT22;5055;52.054;8.524;2023-01-05T12:26:22;10.50;97.00
10030;DHT22;5055;52.054;8.524;2023-01-05T12:29:13;10.50;97.00
10030;DHT22;5055;52.054;8.524;2023-01-05T12:32:21;10.50;97.00
10030;DHT22;5055;52.054;8.524;2023-01-05T12:35:39;10.50;97.00
10030;DHT22;5055;52.054;8.524;2023-01-05T12:38:23;10.50;97.00
10030;DHT22;5055;52.054;8.524;2023-01-05T12:41:08;10.60;97.00
10030;DHT22;5055;52.054;8.524;2023-01-05T12:43:52;10.60;97.00
10030;DHT22;5055;52.054;8.524;2023-01-05T12:46:35;10.60;97.00
10030;DHT22;5055;52.054;8.524;2023-01-05T12:49:11;10.60;97.00
10030;DHT22;5055;52.054;8.524;2023-01-05T12:51:46;10.60;97.00
10030;DHT22;5055;52.054;8.524;2023-01-05T12:54:26;10.60;97.00
10030;DHT22;5055;52.054;8.524;2023-01-05T12:57:03;10.60;97.00
10030;DHT22;5055;52.054;8.524;2023-01-05T12:59:38;10.60;97.00
10030;DHT22;5055;52.054;8.524;2023-01-05T13:02:25;10.70;97.00
10030;DHT22;5055;52.054;8.524;2023-01-05T13:04:59;10.70;97.00
10030;DHT22;5055;52.054;8.524;2023-01-05T13:07:33;10.70;97.00
10030;DHT22;5055;52.054;8.524;2023-01-05T13:10:11;10.70;97.00
10030;DHT22;5055;52.054;8.524;2023-01-05T13:12:42;10.70;97.00
10030;DHT22;5055;52.054;8.524;2023-01-05T13:15:15;10.70;97.00
10030;DHT22;5055;52.054;8.524;2023-01-05T13:17:48;10.70;97.00
10030;DHT22;5055;52.054;8.524;2023-01-05T13:20:29;10.60;97.00
10030;DHT22;5055;52.054;8.524;2023-01-05T13:23:02;10.60;97.00
10030;DHT22;5055;52.054;8.524;2023-01-05T13:25:37;10.60;97.00
10030;DHT22;5055;52.054;8.524;2023-01-05T13:28:18;10.60;97.00
10030;DHT22;5055;52.054;8.524;2023-01-05T13:31:08;10.70;97.00
10030;DHT22;5055;52.054;8.524;2023-01-05T13:46:19;10.60;97.00
10030;DHT22;5055;52.054;8.524;2023-01-05T13:49:20;10.60;97.00
10030;DHT22;5055;52.054;8.524;2023-01-05T13:51:54;10.60;97.00
10030;DHT22;5055;52.054;8.524;2023-01-05T13:54:37;10.60;97.00
10030;DHT22;5055;52.054;8.524;2023-01-05T13:57:28;10.60;97.00
10030;DHT22;5055;52.054;8.524;2023-01-05T14:00:01;10.60;97.00
10030;DHT22;5055;52.054;8.524;2023-01-05T14:02:40;10.60;97.00
10030;DHT22;5055;52.054;8.524;2023-01-05T14:05:15;10.60;97.00
10030;DHT22;5055;52.054;8.524;2023-01-05T14:07:50;10.50;97.00
10030;DHT22;5055;52.054;8.524;2023-01-05T14:10:21;10.50;97.00
10030;DHT22;5055;52.054;8.524;2023-01-05T14:12:51;10.50;97.00
10030;DHT22;5055;52.054;8.524;2023-01-05T14:15:43;10.50;97.00
10030;DHT22;5055;52.054;8.524;2023-01-05T14:18:11;10.50;97.00
10030;DHT22;5055;52.054;8.524;2023-01-05T14:20:43;10.40;97.00
10030;DHT22;5055;52.054;8.524;2023-01-05T14:29:59;10.40;97.00
10030;DHT22;5055;52.054;8.524;2023-01-05T14:32:32;10.40;97.00
10030;DHT22;5055;52.054;8.524;2023-01-05T14:35:07;10.30;97.00
10030;DHT22;5055;52.054;8.524;2023-01-05T14:37:52;10.30;97.00
10030;DHT22;5055;52.054;8.524;2023-01-05T14:40:33;10.30;97.00
10030;DHT22;5055;52.054;8.524;2023-01-05T14:43:05;10.30;97.00
10030;DHT22;5055;52.054;8.524;2023-01-05T14:45:36;10.20;97.00
10030;DHT22;5055;52.054;8.524;2023-01-05T14:48:26;10.20;97.00
10030;DHT22;5055;52.054;8.524;2023-01-05T14:51:21;10.20;97.00
10030;DHT22;5055;52.054;8.524;2023-01-05T14:53:54;10.20;97.00
10030;DHT22;5055;52.054;8.524;2023-01-05T14:56:25;10.10;97.00
10030;DHT22;5055;52.054;8.524;2023-01-05T14:59:04;10.10;97.00
10030;DHT22;5055;52.054;8.524;2023-01-05T15:01:36;10.10;97.00
10030;DHT22;5055;52.054;8.524;2023-01-05T15:04:13;10.10;97.00
10030;DHT22;5055;52.054;8.524;2023-01-05T15:07:00;10.10;97.00
10030;DHT22;5055;52.054;8.524;2023-01-05T15:12:45;10.00;97.00
10030;DHT22;5055;52.054;8.524;2023-01-05T15:15:40;10.00;97.00
10030;DHT22;5055;52.054;8.524;2023-01-05T15:18:38;10.00;97.00
10030;DHT22;5055;52.054;8.524;2023-01-05T15:21:28;10.00;97.00
10030;DHT22;5055;52.054;8.524;2023-01-05T15:24:15;10.00;97.00
10030;DHT22;5055;52.054;8.524;2023-01-05T15:27:03;10.10;97.00
10030;DHT22;5055;52.054;8.524;2023-01-05T15:29:49;10.10;97.00
10030;DHT22;5055;52.054;8.524;2023-01-05T15:32:22;10.10;97.00
10030;DHT22;5055;52.054;8.524;2023-01-05T15:34:55;10.10;97.00
10030;DHT22;5055;52.054;8.524;2023-01-05T15:37:32;10.10;97.00
10030;DHT22;5055;52.054;8.524;2023-01-05T15:40:05;10.10;97.00
10030;DHT22;5055;52.054;8.524;2023-01-05T15:42:38;10.10;97.00
10030;DHT22;5055;52.054;8.524;2023-01-05T15:45:16;10.10;97.00
10030;DHT22;5055;52.054;8.524;2023-01-05T15:47:45;10.10;97.00
10030;DHT22;5055;52.054;8.524;2023-01-05T15:50:18;10.10;97.00
10030;DHT22;5055;52.054;8.524;2023-01-05T15:52:53;10.10;97.00
10030;DHT22;5055;52.054;8.524;2023-01-05T15:55:23;10.10;97.00
10030;DHT22;5055;52.054;8.524;2023-01-05T15:57:52;10.00;97.00
10030;DHT22;5055;52.054;8.524;2023-01-05T16:00:23;10.00;97.00
10030;DHT22;5055;52.054;8.524;2023-01-05T16:02:52;10.00;97.00
10030;DHT22;5055;52.054;8.524;2023-01-05T16:05:22;10.00;97.00
10030;DHT22;5055;52.054;8.524;2023-01-05T16:07:55;10.00;97.00
10030;DHT22;5055;52.054;8.524;2023-01-05T16:10:28;10.00;97.00
10030;DHT22;5055;52.054;8.524;2023-01-05T16:13:01;10.00;97.00
10030;DHT22;5055;52.054;8.524;2023-01-05T16:15:34;10.00;97.00
10030;DHT22;5055;52.054;8.524;2023-01-05T16:18:05;10.00;97.00
10030;DHT22;5055;52.054;8.524;2023-01-05T16:20:35;10.00;97.00
10030;DHT22;5055;52.054;8.524;2023-01-05T16:23:14;10.00;97.00
10030;DHT22;5055;52.054;8.524;2023-01-05T16:25:48;10.00;97.00
10030;DHT22;5055;52.054;8.524;2023-01-05T16:28:19;10.00;97.00
10030;DHT22;5055;52.054;8.524;2023-01-05T16:30:50;10.00;97.00
10030;DHT22;5055;52.054;8.524;2023-01-05T16:33:26;10.00;97.00
10030;DHT22;5055;52.054;8.524;2023-01-05T16:36:09;10.00;97.00
10030;DHT22;5055;52.054;8.524;2023-01-05T16:38:40;10.00;97.00
10030;DHT22;5055;52.054;8.524;2023-01-05T16:41:19;10.00;97.00
10030;DHT22;5055;52.054;8.524;2023-01-05T16:43:53;10.00;97.00
10030;DHT22;5055;52.054;8.524;2023-01-05T16:46:32;9.90;97.00
10030;DHT22;5055;52.054;8.524;2023-01-05T16:51:47;9.90;97.00
10030;DHT22;5055;52.054;8.524;2023-01-05T16:54:19;9.90;97.00
10030;DHT22;5055;52.054;8.524;2023-01-05T16:56:53;9.90;97.00
10030;DHT22;5055;52.054;8.524;2023-01-05T16:59:39;9.90;97.00
10030;DHT22;5055;52.054;8.524;2023-01-05T17:02:37;9.90;97.00
10030;DHT22;5055;52.054;8.524;2023-01-05T17:05:07;9.90;97.00
10030;DHT22;5055;52.054;8.524;2023-01-05T17:07:37;9.90;97.00
10030;DHT22;5055;52.054;8.524;2023-01-05T17:10:16;9.80;97.00